Terminal Aerodrome Forecast
Issued by NWS

Home | Current Version | Previous Version | Text Only | Print | Product List | Glossary On
Versions: 1 2 3 4 5 6 7 8 9 10 11 12 13 14 15 16 17 18 19 20 21 22
670
FTUS43 KAPX 111442 AAB
TAFMBL
TAF AMD
KMBL 111442Z 1115/1212 16008KT 5SM -SN SCT015 OVC025
     FM112200 25005KT 2SM -SN OVC010
     FM120000 31008KT 2SM -SHSN OVC010
     FM120300 34016G28KT 5SM -SHSN BLSN OVC025
     FM120800 34018G32KT 3/4SM -SHSN BLSN OVC030=

USA.gov is the U.S. government's official web portal to all federal, state and local government web resources and services.